sensor_id;sensor_type;location;lat;lon;timestamp;P1;durP1;ratioP1;P2;durP2;ratioP2
5823;SDS011;2938;52.254;12.988;2023-10-13T00:01:12;27.60;;;14.18;;
5823;SDS011;2938;52.254;12.988;2023-10-13T00:03:38;25.27;;;14.43;;
5823;SDS011;2938;52.254;12.988;2023-10-13T00:06:05;29.52;;;15.65;;
5823;SDS011;2938;52.254;12.988;2023-10-13T00:08:31;18.27;;;11.77;;
5823;SDS011;2938;52.254;12.988;2023-10-13T00:10:56;22.95;;;12.20;;
5823;SDS011;2938;52.254;12.988;2023-10-13T00:13:25;33.55;;;14.35;;
5823;SDS011;2938;52.254;12.988;2023-10-13T00:15:51;24.98;;;12.52;;
5823;SDS011;2938;52.254;12.988;2023-10-13T00:18:32;21.98;;;13.20;;
5823;SDS011;2938;52.254;12.988;2023-10-13T00:21:06;22.00;;;12.35;;
5823;SDS011;2938;52.254;12.988;2023-10-13T00:23:39;20.60;;;12.75;;
5823;SDS011;2938;52.254;12.988;2023-10-13T00:26:08;18.40;;;11.32;;
5823;SDS011;2938;52.254;12.988;2023-10-13T00:28:34;32.35;;;12.27;;
5823;SDS011;2938;52.254;12.988;2023-10-13T00:31:12;17.00;;;11.13;;
5823;SDS011;2938;52.254;12.988;2023-10-13T00:33:39;26.98;;;13.85;;
5823;SDS011;2938;52.254;12.988;2023-10-13T00:36:07;21.13;;;12.30;;
5823;SDS011;2938;52.254;12.988;2023-10-13T00:38:34;29.00;;;11.40;;
5823;SDS011;2938;52.254;12.988;2023-10-13T00:41:00;16.33;;;10.73;;
5823;SDS011;2938;52.254;12.988;2023-10-13T00:43:43;27.13;;;12.38;;
5823;SDS011;2938;52.254;12.988;2023-10-13T00:46:10;22.27;;;11.00;;
5823;SDS011;2938;52.254;12.988;2023-10-13T00:48:38;18.33;;;10.93;;
5823;SDS011;2938;52.254;12.988;2023-10-13T00:51:12;23.42;;;12.15;;
5823;SDS011;2938;52.254;12.988;2023-10-13T00:53:57;22.27;;;11.30;;
5823;SDS011;2938;52.254;12.988;2023-10-13T00:56:27;26.00;;;10.50;;
5823;SDS011;2938;52.254;12.988;2023-10-13T00:58:54;16.48;;;12.57;;
5823;SDS011;2938;52.254;12.988;2023-10-13T01:01:23;25.17;;;11.35;;
5823;SDS011;2938;52.254;12.988;2023-10-13T01:03:55;14.38;;;9.40;;
5823;SDS011;2938;52.254;12.988;2023-10-13T01:06:24;16.98;;;9.93;;
5823;SDS011;2938;52.254;12.988;2023-10-13T01:08:56;21.48;;;10.93;;
5823;SDS011;2938;52.254;12.988;2023-10-13T01:11:22;16.70;;;10.10;;
5823;SDS011;2938;52.254;12.988;2023-10-13T01:13:52;23.00;;;10.13;;
5823;SDS011;2938;52.254;12.988;2023-10-13T01:16:19;28.95;;;9.60;;
5823;SDS011;2938;52.254;12.988;2023-10-13T01:18:48;16.63;;;11.27;;
5823;SDS011;2938;52.254;12.988;2023-10-13T01:21:17;19.75;;;9.85;;
5823;SDS011;2938;52.254;12.988;2023-10-13T01:23:45;17.25;;;11.05;;
5823;SDS011;2938;52.254;12.988;2023-10-13T01:26:12;19.95;;;10.10;;
5823;SDS011;2938;52.254;12.988;2023-10-13T01:28:41;11.38;;;8.15;;
5823;SDS011;2938;52.254;12.988;2023-10-13T01:31:24;19.58;;;9.85;;
5823;SDS011;2938;52.254;12.988;2023-10-13T01:34:02;14.60;;;8.88;;
5823;SDS011;2938;52.254;12.988;2023-10-13T01:36:27;14.73;;;9.40;;
5823;SDS011;2938;52.254;12.988;2023-10-13T01:38:53;18.33;;;11.45;;
5823;SDS011;2938;52.254;12.988;2023-10-13T01:41:19;20.92;;;10.77;;
5823;SDS011;2938;52.254;12.988;2023-10-13T01:43:45;18.08;;;9.63;;
5823;SDS011;2938;52.254;12.988;2023-10-13T01:46:11;20.50;;;10.18;;
5823;SDS011;2938;52.254;12.988;2023-10-13T01:48:41;24.10;;;10.23;;
5823;SDS011;2938;52.254;12.988;2023-10-13T01:51:11;21.30;;;10.88;;
5823;SDS011;2938;52.254;12.988;2023-10-13T01:53:37;21.63;;;10.73;;
5823;SDS011;2938;52.254;12.988;2023-10-13T01:56:03;28.67;;;10.57;;
5823;SDS011;2938;52.254;12.988;2023-10-13T01:58:39;23.15;;;12.43;;
5823;SDS011;2938;52.254;12.988;2023-10-13T02:01:07;20.75;;;11.55;;
5823;SDS011;2938;52.254;12.988;2023-10-13T02:03:36;18.00;;;10.88;;
5823;SDS011;2938;52.254;12.988;2023-10-13T02:06:07;28.50;;;12.30;;
5823;SDS011;2938;52.254;12.988;2023-10-13T02:08:35;24.70;;;12.55;;
5823;SDS011;2938;52.254;12.988;2023-10-13T02:11:05;18.73;;;10.80;;
5823;SDS011;2938;52.254;12.988;2023-10-13T02:13:32;26.85;;;11.10;;
5823;SDS011;2938;52.254;12.988;2023-10-13T02:15:57;24.30;;;12.18;;
5823;SDS011;2938;52.254;12.988;2023-10-13T02:18:23;19.90;;;10.23;;
5823;SDS011;2938;52.254;12.988;2023-10-13T02:20:54;25.08;;;12.60;;
5823;SDS011;2938;52.254;12.988;2023-10-13T02:23:22;24.65;;;11.70;;
5823;SDS011;2938;52.254;12.988;2023-10-13T02:25:47;22.98;;;11.57;;
5823;SDS011;2938;52.254;12.988;2023-10-13T02:28:13;16.02;;;10.48;;
5823;SDS011;2938;52.254;12.988;2023-10-13T02:30:42;16.65;;;10.93;;
5823;SDS011;2938;52.254;12.988;2023-10-13T02:33:13;24.35;;;11.43;;
5823;SDS011;2938;52.254;12.988;2023-10-13T02:35:42;25.38;;;12.32;;
5823;SDS011;2938;52.254;12.988;2023-10-13T02:38:15;19.63;;;10.68;;
5823;SDS011;2938;52.254;12.988;2023-10-13T02:40:41;24.73;;;11.13;;
5823;SDS011;2938;52.254;12.988;2023-10-13T02:43:07;23.10;;;13.30;;
5823;SDS011;2938;52.254;12.988;2023-10-13T02:45:32;20.83;;;10.85;;
5823;SDS011;2938;52.254;12.988;2023-10-13T02:48:02;22.90;;;12.48;;
5823;SDS011;2938;52.254;12.988;2023-10-13T02:50:39;18.70;;;11.82;;
5823;SDS011;2938;52.254;12.988;2023-10-13T02:53:08;15.63;;;11.48;;
5823;SDS011;2938;52.254;12.988;2023-10-13T02:55:37;23.75;;;12.73;;
5823;SDS011;2938;52.254;12.988;2023-10-13T02:58:03;26.30;;;13.30;;
5823;SDS011;2938;52.254;12.988;2023-10-13T03:00:29;21.40;;;12.52;;
5823;SDS011;2938;52.254;12.988;2023-10-13T03:02:56;18.50;;;13.18;;
5823;SDS011;2938;52.254;12.988;2023-10-13T03:05:25;19.75;;;13.48;;
5823;SDS011;2938;52.254;12.988;2023-10-13T03:07:56;19.67;;;13.52;;
5823;SDS011;2938;52.254;12.988;2023-10-13T03:10:23;33.15;;;14.07;;
5823;SDS011;2938;52.254;12.988;2023-10-13T03:12:53;32.47;;;13.88;;
5823;SDS011;2938;52.254;12.988;2023-10-13T03:15:22;22.63;;;13.52;;
5823;SDS011;2938;52.254;12.988;2023-10-13T03:17:58;24.13;;;12.73;;
5823;SDS011;2938;52.254;12.988;2023-10-13T03:20:26;20.40;;;13.15;;
5823;SDS011;2938;52.254;12.988;2023-10-13T03:22:58;24.67;;;13.43;;
5823;SDS011;2938;52.254;12.988;2023-10-13T03:25:23;20.80;;;13.90;;
5823;SDS011;2938;52.254;12.988;2023-10-13T03:27:54;20.67;;;12.88;;
5823;SDS011;2938;52.254;12.988;2023-10-13T03:30:20;20.27;;;12.40;;
5823;SDS011;2938;52.254;12.988;2023-10-13T03:32:46;26.02;;;14.48;;
5823;SDS011;2938;52.254;12.988;2023-10-13T03:35:14;26.30;;;13.73;;
5823;SDS011;2938;52.254;12.988;2023-10-13T03:37:49;33.88;;;16.23;;
5823;SDS011;2938;52.254;12.988;2023-10-13T03:40:15;26.83;;;14.98;;
5823;SDS011;2938;52.254;12.988;2023-10-13T03:42:46;24.65;;;14.70;;
5823;SDS011;2938;52.254;12.988;2023-10-13T03:45:29;29.27;;;16.23;;
5823;SDS011;2938;52.254;12.988;2023-10-13T03:48:01;32.15;;;14.75;;
5823;SDS011;2938;52.254;12.988;2023-10-13T03:50:33;23.52;;;15.77;;
5823;SDS011;2938;52.254;12.988;2023-10-13T03:53:00;28.35;;;18.02;;
5823;SDS011;2938;52.254;12.988;2023-10-13T03:55:26;22.58;;;15.27;;
5823;SDS011;2938;52.254;12.988;2023-10-13T03:57:52;31.38;;;16.00;;
5823;SDS011;2938;52.254;12.988;2023-10-13T04:00:19;24.30;;;15.75;;
5823;SDS011;2938;52.254;12.988;2023-10-13T04:02:54;27.88;;;16.65;;
5823;SDS011;2938;52.254;12.988;2023-10-13T04:05:31;25.98;;;15.95;;
5823;SDS011;2938;52.254;12.988;2023-10-13T04:08:26;29.25;;;16.08;;
5823;SDS011;2938;52.254;12.988;2023-10-13T04:10:55;26.10;;;17.25;;
5823;SDS011;2938;52.254;12.988;2023-10-13T04:13:21;27.67;;;16.50;;
5823;SDS011;2938;52.254;12.988;2023-10-13T04:16:09;25.73;;;17.67;;
5823;SDS011;2938;52.254;12.988;2023-10-13T04:18:46;30.63;;;19.88;;
5823;SDS011;2938;52.254;12.988;2023-10-13T04:21:32;27.95;;;18.60;;
5823;SDS011;2938;52.254;12.988;2023-10-13T04:24:03;33.53;;;17.17;;
5823;SDS011;2938;52.254;12.988;2023-10-13T04:26:50;25.35;;;18.67;;
5823;SDS011;2938;52.254;12.988;2023-10-13T04:29:34;29.05;;;18.73;;
5823;SDS011;2938;52.254;12.988;2023-10-13T04:32:19;31.13;;;20.17;;
5823;SDS011;2938;52.254;12.988;2023-10-13T04:34:54;28.80;;;20.30;;
5823;SDS011;2938;52.254;12.988;2023-10-13T04:37:33;34.05;;;19.40;;
5823;SDS011;2938;52.254;12.988;2023-10-13T04:40:13;34.17;;;20.60;;
5823;SDS011;2938;52.254;12.988;2023-10-13T04:42:39;32.17;;;20.50;;
5823;SDS011;2938;52.254;12.988;2023-10-13T04:45:14;32.28;;;20.15;;
5823;SDS011;2938;52.254;12.988;2023-10-13T04:47:58;31.63;;;20.35;;
5823;SDS011;2938;52.254;12.988;2023-10-13T04:50:52;30.30;;;21.23;;
5823;SDS011;2938;52.254;12.988;2023-10-13T04:53:40;28.42;;;20.98;;
5823;SDS011;2938;52.254;12.988;2023-10-13T04:56:24;36.20;;;20.60;;
5823;SDS011;2938;52.254;12.988;2023-10-13T04:59:08;33.30;;;22.42;;
5823;SDS011;2938;52.254;12.988;2023-10-13T05:01:43;24.02;;;18.77;;
5823;SDS011;2938;52.254;12.988;2023-10-13T05:04:27;36.03;;;22.13;;
5823;SDS011;2938;52.254;12.988;2023-10-13T05:07:06;32.17;;;20.48;;
5823;SDS011;2938;52.254;12.988;2023-10-13T05:09:50;31.13;;;22.50;;
5823;SDS011;2938;52.254;12.988;2023-10-13T05:12:34;34.67;;;21.10;;
5823;SDS011;2938;52.254;12.988;2023-10-13T05:15:19;37.78;;;20.88;;
5823;SDS011;2938;52.254;12.988;2023-10-13T05:18:03;30.25;;;21.77;;
5823;SDS011;2938;52.254;12.988;2023-10-13T05:20:47;33.33;;;21.73;;
5823;SDS011;2938;52.254;12.988;2023-10-13T05:23:31;32.13;;;20.65;;
5823;SDS011;2938;52.254;12.988;2023-10-13T05:26:15;35.13;;;22.55;;
5823;SDS011;2938;52.254;12.988;2023-10-13T05:29:00;34.15;;;22.00;;
5823;SDS011;2938;52.254;12.988;2023-10-13T05:31:44;28.40;;;21.58;;
5823;SDS011;2938;52.254;12.988;2023-10-13T05:34:30;30.88;;;19.90;;
5823;SDS011;2938;52.254;12.988;2023-10-13T05:37:14;35.63;;;20.52;;
5823;SDS011;2938;52.254;12.988;2023-10-13T05:39:58;35.45;;;20.70;;
5823;SDS011;2938;52.254;12.988;2023-10-13T05:42:42;23.13;;;18.92;;
5823;SDS011;2938;52.254;12.988;2023-10-13T05:45:26;28.88;;;20.70;;
5823;SDS011;2938;52.254;12.988;2023-10-13T05:48:05;30.88;;;20.08;;
5823;SDS011;2938;52.254;12.988;2023-10-13T05:53:35;31.38;;;19.73;;
5823;SDS011;2938;52.254;12.988;2023-10-13T05:56:19;29.48;;;21.10;;
5823;SDS011;2938;52.254;12.988;2023-10-13T05:59:03;30.85;;;21.25;;
5823;SDS011;2938;52.254;12.988;2023-10-13T06:01:47;37.35;;;21.08;;
5823;SDS011;2938;52.254;12.988;2023-10-13T06:04:31;32.17;;;21.10;;
5823;SDS011;2938;52.254;12.988;2023-10-13T06:07:15;24.48;;;20.40;;
5823;SDS011;2938;52.254;12.988;2023-10-13T06:09:59;35.30;;;23.83;;
5823;SDS011;2938;52.254;12.988;2023-10-13T06:12:43;28.08;;;19.27;;
5823;SDS011;2938;52.254;12.988;2023-10-13T06:15:27;31.17;;;20.75;;
5823;SDS011;2938;52.254;12.988;2023-10-13T06:18:11;28.52;;;20.27;;
5823;SDS011;2938;52.254;12.988;2023-10-13T06:20:55;29.48;;;20.88;;
5823;SDS011;2938;52.254;12.988;2023-10-13T06:23:44;28.90;;;18.95;;
5823;SDS011;2938;52.254;12.988;2023-10-13T06:26:29;31.13;;;18.33;;
5823;SDS011;2938;52.254;12.988;2023-10-13T06:29:13;24.65;;;20.60;;
5823;SDS011;2938;52.254;12.988;2023-10-13T06:31:44;30.05;;;18.63;;
5823;SDS011;2938;52.254;12.988;2023-10-13T06:34:11;23.92;;;18.58;;
5823;SDS011;2938;52.254;12.988;2023-10-13T06:36:40;26.52;;;19.20;;
5823;SDS011;2938;52.254;12.988;2023-10-13T06:39:05;21.08;;;15.23;;
5823;SDS011;2938;52.254;12.988;2023-10-13T06:42:00;23.48;;;16.15;;
5823;SDS011;2938;52.254;12.988;2023-10-13T06:44:27;23.58;;;16.33;;
5823;SDS011;2938;52.254;12.988;2023-10-13T06:46:57;23.65;;;15.88;;
5823;SDS011;2938;52.254;12.988;2023-10-13T06:49:22;21.67;;;16.30;;
5823;SDS011;2938;52.254;12.988;2023-10-13T06:51:48;18.67;;;14.85;;
5823;SDS011;2938;52.254;12.988;2023-10-13T06:54:14;20.70;;;13.63;;
5823;SDS011;2938;52.254;12.988;2023-10-13T06:56:46;29.10;;;15.70;;
5823;SDS011;2938;52.254;12.988;2023-10-13T06:59:11;22.67;;;14.15;;
5823;SDS011;2938;52.254;12.988;2023-10-13T07:01:40;28.35;;;14.38;;
5823;SDS011;2938;52.254;12.988;2023-10-13T07:04:07;18.13;;;12.90;;
5823;SDS011;2938;52.254;12.988;2023-10-13T07:06:39;20.58;;;13.18;;
5823;SDS011;2938;52.254;12.988;2023-10-13T07:09:14;21.48;;;13.70;;
5823;SDS011;2938;52.254;12.988;2023-10-13T07:12:03;17.65;;;12.98;;
5823;SDS011;2938;52.254;12.988;2023-10-13T07:14:31;23.70;;;13.95;;
5823;SDS011;2938;52.254;12.988;2023-10-13T07:17:02;23.30;;;12.52;;
5823;SDS011;2938;52.254;12.988;2023-10-13T07:19:30;15.68;;;12.27;;
5823;SDS011;2938;52.254;12.988;2023-10-13T07:21:56;20.95;;;12.60;;
5823;SDS011;2938;52.254;12.988;2023-10-13T07:24:27;17.08;;;11.65;;
5823;SDS011;2938;52.254;12.988;2023-10-13T07:26:56;17.33;;;10.27;;
5823;SDS011;2938;52.254;12.988;2023-10-13T07:29:29;16.02;;;11.55;;
5823;SDS011;2938;52.254;12.988;2023-10-13T07:31:55;18.30;;;12.45;;
5823;SDS011;2938;52.254;12.988;2023-10-13T07:34:20;13.20;;;9.93;;
5823;SDS011;2938;52.254;12.988;2023-10-13T07:36:54;13.45;;;11.48;;
5823;SDS011;2938;52.254;12.988;2023-10-13T07:39:24;17.58;;;10.60;;
5823;SDS011;2938;52.254;12.988;2023-10-13T07:41:50;13.05;;;10.02;;
5823;SDS011;2938;52.254;12.988;2023-10-13T07:44:19;15.23;;;9.68;;
5823;SDS011;2938;52.254;12.988;2023-10-13T07:46:49;13.23;;;10.35;;
5823;SDS011;2938;52.254;12.988;2023-10-13T07:49:25;19.80;;;11.15;;
5823;SDS011;2938;52.254;12.988;2023-10-13T07:52:00;14.80;;;9.85;;
5823;SDS011;2938;52.254;12.988;2023-10-13T07:54:31;18.60;;;10.70;;
5823;SDS011;2938;52.254;12.988;2023-10-13T07:56:57;12.88;;;10.82;;
5823;SDS011;2938;52.254;12.988;2023-10-13T07:59:22;11.25;;;8.98;;
5823;SDS011;2938;52.254;12.988;2023-10-13T08:01:48;11.52;;;9.07;;
5823;SDS011;2938;52.254;12.988;2023-10-13T08:04:34;13.45;;;10.15;;
5823;SDS011;2938;52.254;12.988;2023-10-13T08:07:00;17.55;;;9.25;;
5823;SDS011;2938;52.254;12.988;2023-10-13T08:09:36;12.57;;;9.43;;
5823;SDS011;2938;52.254;12.988;2023-10-13T08:12:05;19.13;;;9.02;;
5823;SDS011;2938;52.254;12.988;2023-10-13T08:14:32;14.82;;;8.25;;
5823;SDS011;2938;52.254;12.988;2023-10-13T08:17:03;15.13;;;9.32;;
5823;SDS011;2938;52.254;12.988;2023-10-13T08:19:32;13.93;;;8.90;;
5823;SDS011;2938;52.254;12.988;2023-10-13T08:22:10;22.38;;;10.18;;
5823;SDS011;2938;52.254;12.988;2023-10-13T08:24:45;10.27;;;8.40;;
5823;SDS011;2938;52.254;12.988;2023-10-13T08:27:14;9.60;;;7.95;;
5823;SDS011;2938;52.254;12.988;2023-10-13T08:29:41;14.63;;;8.13;;
5823;SDS011;2938;52.254;12.988;2023-10-13T08:32:25;10.87;;;8.27;;
5823;SDS011;2938;52.254;12.988;2023-10-13T08:35:00;12.45;;;8.23;;
5823;SDS011;2938;52.254;12.988;2023-10-13T08:37:32;10.85;;;7.93;;
5823;SDS011;2938;52.254;12.988;2023-10-13T08:40:01;11.75;;;8.75;;
5823;SDS011;2938;52.254;12.988;2023-10-13T08:42:27;9.55;;;8.25;;
5823;SDS011;2938;52.254;12.988;2023-10-13T08:47:56;20.10;;;8.93;;
5823;SDS011;2938;52.254;12.988;2023-10-13T08:50:37;10.30;;;9.27;;
5823;SDS011;2938;52.254;12.988;2023-10-13T08:53:20;10.38;;;8.55;;
5823;SDS011;2938;52.254;12.988;2023-10-13T08:56:02;15.32;;;9.45;;
5823;SDS011;2938;52.254;12.988;2023-10-13T08:58:43;10.25;;;8.02;;
5823;SDS011;2938;52.254;12.988;2023-10-13T09:01:25;10.43;;;7.90;;
5823;SDS011;2938;52.254;12.988;2023-10-13T09:04:10;15.90;;;8.98;;
5823;SDS011;2938;52.254;12.988;2023-10-13T09:06:55;12.18;;;8.52;;
5823;SDS011;2938;52.254;12.988;2023-10-13T09:09:25;14.50;;;8.82;;
5823;SDS011;2938;52.254;12.988;2023-10-13T09:12:00;11.32;;;8.90;;
5823;SDS011;2938;52.254;12.988;2023-10-13T09:14:54;11.90;;;8.55;;
5823;SDS011;2938;52.254;12.988;2023-10-13T09:17:26;12.27;;;9.18;;
5823;SDS011;2938;52.254;12.988;2023-10-13T09:19:58;16.83;;;8.80;;
5823;SDS011;2938;52.254;12.988;2023-10-13T09:22:36;14.40;;;9.60;;
5823;SDS011;2938;52.254;12.988;2023-10-13T09:25:02;12.15;;;9.45;;
5823;SDS011;2938;52.254;12.988;2023-10-13T09:27:30;14.30;;;8.10;;
5823;SDS011;2938;52.254;12.988;2023-10-13T09:30:02;17.58;;;10.23;;
5823;SDS011;2938;52.254;12.988;2023-10-13T09:32:35;14.55;;;9.23;;
5823;SDS011;2938;52.254;12.988;2023-10-13T09:35:11;11.45;;;7.13;;
5823;SDS011;2938;52.254;12.988;2023-10-13T09:37:42;18.20;;;8.95;;
5823;SDS011;2938;52.254;12.988;2023-10-13T09:40:11;20.80;;;9.88;;
5823;SDS011;2938;52.254;12.988;2023-10-13T09:42:50;15.45;;;9.20;;
5823;SDS011;2938;52.254;12.988;2023-10-13T09:45:16;11.20;;;8.32;;
5823;SDS011;2938;52.254;12.988;2023-10-13T09:47:43;10.63;;;8.18;;
5823;SDS011;2938;52.254;12.988;2023-10-13T09:50:12;13.77;;;8.18;;
5823;SDS011;2938;52.254;12.988;2023-10-13T09:52:39;14.93;;;9.43;;
5823;SDS011;2938;52.254;12.988;2023-10-13T09:55:27;14.05;;;10.55;;
5823;SDS011;2938;52.254;12.988;2023-10-13T09:58:03;14.60;;;9.30;;
5823;SDS011;2938;52.254;12.988;2023-10-13T10:00:43;15.40;;;8.82;;
5823;SDS011;2938;52.254;12.988;2023-10-13T10:03:51;21.35;;;9.50;;
5823;SDS011;2938;52.254;12.988;2023-10-13T10:06:36;14.27;;;9.35;;
5823;SDS011;2938;52.254;12.988;2023-10-13T10:14:40;18.30;;;9.88;;
5823;SDS011;2938;52.254;12.988;2023-10-13T10:17:07;14.27;;;8.38;;
5823;SDS011;2938;52.254;12.988;2023-10-13T10:19:44;15.43;;;8.70;;
5823;SDS011;2938;52.254;12.988;2023-10-13T10:22:11;19.40;;;8.65;;
5823;SDS011;2938;52.254;12.988;2023-10-13T10:24:42;16.60;;;8.90;;
5823;SDS011;2938;52.254;12.988;2023-10-13T10:27:09;12.20;;;8.90;;
5823;SDS011;2938;52.254;12.988;2023-10-13T10:29:52;23.83;;;9.40;;
5823;SDS011;2938;52.254;12.988;2023-10-13T10:32:18;13.68;;;8.93;;
5823;SDS011;2938;52.254;12.988;2023-10-13T10:34:44;16.88;;;9.38;;
5823;SDS011;2938;52.254;12.988;2023-10-13T10:37:09;13.88;;;8.30;;
5823;SDS011;2938;52.254;12.988;2023-10-13T10:39:35;13.07;;;9.48;;
5823;SDS011;2938;52.254;12.988;2023-10-13T10:42:11;15.50;;;9.77;;
5823;SDS011;2938;52.254;12.988;2023-10-13T10:44:49;12.80;;;8.48;;
5823;SDS011;2938;52.254;12.988;2023-10-13T10:47:20;17.35;;;10.75;;
5823;SDS011;2938;52.254;12.988;2023-10-13T10:50:03;13.25;;;8.95;;
5823;SDS011;2938;52.254;12.988;2023-10-13T10:52:44;15.15;;;9.07;;
5823;SDS011;2938;52.254;12.988;2023-10-13T10:55:11;10.45;;;8.02;;
5823;SDS011;2938;52.254;12.988;2023-10-13T10:57:44;14.20;;;8.43;;
5823;SDS011;2938;52.254;12.988;2023-10-13T11:00:19;16.50;;;8.55;;
5823;SDS011;2938;52.254;12.988;2023-10-13T11:02:57;12.77;;;8.82;;
5823;SDS011;2938;52.254;12.988;2023-10-13T11:05:23;17.35;;;9.20;;
5823;SDS011;2938;52.254;12.988;2023-10-13T11:07:54;15.07;;;9.73;;
5823;SDS011;2938;52.254;12.988;2023-10-13T11:10:19;16.63;;;10.00;;
5823;SDS011;2938;52.254;12.988;2023-10-13T11:12:57;18.63;;;9.98;;
5823;SDS011;2938;52.254;12.988;2023-10-13T11:15:41;16.83;;;10.35;;
5823;SDS011;2938;52.254;12.988;2023-10-13T11:18:12;14.90;;;9.15;;
5823;SDS011;2938;52.254;12.988;2023-10-13T11:21:01;18.35;;;9.60;;
5823;SDS011;2938;52.254;12.988;2023-10-13T11:23:32;24.30;;;10.68;;
5823;SDS011;2938;52.254;12.988;2023-10-13T11:26:01;12.93;;;8.63;;
5823;SDS011;2938;52.254;12.988;2023-10-13T11:28:28;11.85;;;9.20;;
5823;SDS011;2938;52.254;12.988;2023-10-13T11:30:54;19.20;;;8.95;;
5823;SDS011;2938;52.254;12.988;2023-10-13T11:33:23;12.65;;;10.30;;
5823;SDS011;2938;52.254;12.988;2023-10-13T11:35:50;20.77;;;9.23;;
5823;SDS011;2938;52.254;12.988;2023-10-13T11:38:19;14.40;;;9.40;;
5823;SDS011;2938;52.254;12.988;2023-10-13T11:41:08;16.75;;;10.00;;
5823;SDS011;2938;52.254;12.988;2023-10-13T11:43:41;11.73;;;8.85;;
5823;SDS011;2938;52.254;12.988;2023-10-13T11:46:08;13.75;;;8.45;;
5823;SDS011;2938;52.254;12.988;2023-10-13T11:48:43;15.75;;;9.52;;
5823;SDS011;2938;52.254;12.988;2023-10-13T11:51:19;10.65;;;7.65;;
5823;SDS011;2938;52.254;12.988;2023-10-13T11:53:57;13.23;;;8.57;;
5823;SDS011;2938;52.254;12.988;2023-10-13T11:56:23;16.50;;;8.73;;
5823;SDS011;2938;52.254;12.988;2023-10-13T11:58:49;14.13;;;9.50;;
5823;SDS011;2938;52.254;12.988;2023-10-13T12:01:15;19.17;;;10.18;;
5823;SDS011;2938;52.254;12.988;2023-10-13T12:03:44;18.35;;;11.05;;
5823;SDS011;2938;52.254;12.988;2023-10-13T12:06:29;18.67;;;7.97;;
5823;SDS011;2938;52.254;12.988;2023-10-13T12:09:05;21.48;;;7.90;;
5823;SDS011;2938;52.254;12.988;2023-10-13T12:11:44;15.80;;;8.65;;
5823;SDS011;2938;52.254;12.988;2023-10-13T12:14:13;13.30;;;8.95;;
5823;SDS011;2938;52.254;12.988;2023-10-13T12:16:54;16.80;;;8.75;;
5823;SDS011;2938;52.254;12.988;2023-10-13T12:19:21;15.10;;;8.18;;
5823;SDS011;2938;52.254;12.988;2023-10-13T12:21:54;13.20;;;7.63;;
5823;SDS011;2938;52.254;12.988;2023-10-13T12:24:20;12.48;;;7.15;;
5823;SDS011;2938;52.254;12.988;2023-10-13T12:27:04;12.40;;;7.70;;
5823;SDS011;2938;52.254;12.988;2023-10-13T12:29:44;16.27;;;7.45;;
5823;SDS011;2938;52.254;12.988;2023-10-13T12:32:11;14.15;;;7.88;;
5823;SDS011;2938;52.254;12.988;2023-10-13T12:34:38;20.67;;;8.18;;
5823;SDS011;2938;52.254;12.988;2023-10-13T12:37:26;15.50;;;8.35;;
5823;SDS011;2938;52.254;12.988;2023-10-13T12:40:01;10.07;;;7.90;;
5823;SDS011;2938;52.254;12.988;2023-10-13T12:42:56;15.85;;;8.68;;
5823;SDS011;2938;52.254;12.988;2023-10-13T12:45:41;20.00;;;8.98;;
5823;SDS011;2938;52.254;12.988;2023-10-13T12:48:26;22.63;;;9.13;;
5823;SDS011;2938;52.254;12.988;2023-10-13T12:51:11;30.75;;;8.88;;
5823;SDS011;2938;52.254;12.988;2023-10-13T12:53:46;24.15;;;9.10;;
5823;SDS011;2938;52.254;12.988;2023-10-13T12:56:14;19.45;;;9.40;;
5823;SDS011;2938;52.254;12.988;2023-10-13T12:58:40;24.85;;;8.45;;
5823;SDS011;2938;52.254;12.988;2023-10-13T13:01:06;22.83;;;9.10;;
5823;SDS011;2938;52.254;12.988;2023-10-13T13:03:32;15.73;;;6.95;;
5823;SDS011;2938;52.254;12.988;2023-10-13T13:05:57;20.05;;;8.10;;
5823;SDS011;2938;52.254;12.988;2023-10-13T13:08:32;15.68;;;7.95;;
5823;SDS011;2938;52.254;12.988;2023-10-13T13:11:00;14.48;;;7.82;;
5823;SDS011;2938;52.254;12.988;2023-10-13T13:13:26;15.25;;;7.72;;
5823;SDS011;2938;52.254;12.988;2023-10-13T13:15:51;20.50;;;7.95;;
5823;SDS011;2938;52.254;12.988;2023-10-13T13:18:17;9.75;;;6.80;;
5823;SDS011;2938;52.254;12.988;2023-10-13T13:20:44;17.73;;;8.13;;
5823;SDS011;2938;52.254;12.988;2023-10-13T13:23:18;17.67;;;8.52;;
5823;SDS011;2938;52.254;12.988;2023-10-13T13:25:45;12.98;;;7.97;;
5823;SDS011;2938;52.254;12.988;2023-10-13T13:28:10;17.58;;;7.70;;
5823;SDS011;2938;52.254;12.988;2023-10-13T13:30:36;20.65;;;8.18;;
5823;SDS011;2938;52.254;12.988;2023-10-13T13:33:03;17.75;;;7.75;;
5823;SDS011;2938;52.254;12.988;2023-10-13T13:35:35;19.08;;;8.70;;
5823;SDS011;2938;52.254;12.988;2023-10-13T13:38:04;20.63;;;9.10;;
5823;SDS011;2938;52.254;12.988;2023-10-13T13:40:38;20.30;;;7.72;;
5823;SDS011;2938;52.254;12.988;2023-10-13T13:43:04;16.85;;;7.30;;
5823;SDS011;2938;52.254;12.988;2023-10-13T13:45:30;20.90;;;8.95;;
5823;SDS011;2938;52.254;12.988;2023-10-13T13:47:57;19.90;;;8.68;;
5823;SDS011;2938;52.254;12.988;2023-10-13T13:50:23;21.85;;;8.73;;
5823;SDS011;2938;52.254;12.988;2023-10-13T13:52:50;20.38;;;7.47;;
5823;SDS011;2938;52.254;12.988;2023-10-13T13:55:17;23.60;;;7.72;;
5823;SDS011;2938;52.254;12.988;2023-10-13T13:57:43;15.32;;;7.78;;
5823;SDS011;2938;52.254;12.988;2023-10-13T14:00:10;12.23;;;7.53;;
5823;SDS011;2938;52.254;12.988;2023-10-13T14:02:42;20.95;;;8.75;;
5823;SDS011;2938;52.254;12.988;2023-10-13T14:05:12;25.45;;;8.32;;
5823;SDS011;2938;52.254;12.988;2023-10-13T14:07:40;20.00;;;8.57;;
5823;SDS011;2938;52.254;12.988;2023-10-13T14:10:14;23.98;;;8.60;;
5823;SDS011;2938;52.254;12.988;2023-10-13T14:12:41;27.95;;;11.20;;
5823;SDS011;2938;52.254;12.988;2023-10-13T14:15:07;13.47;;;8.67;;
5823;SDS011;2938;52.254;12.988;2023-10-13T14:17:51;17.48;;;8.95;;
5823;SDS011;2938;52.254;12.988;2023-10-13T14:20:16;17.63;;;8.50;;
5823;SDS011;2938;52.254;12.988;2023-10-13T14:22:45;24.90;;;9.35;;
5823;SDS011;2938;52.254;12.988;2023-10-13T14:25:13;19.90;;;7.03;;
5823;SDS011;2938;52.254;12.988;2023-10-13T14:27:40;15.95;;;7.72;;
5823;SDS011;2938;52.254;12.988;2023-10-13T14:30:06;23.65;;;9.00;;
5823;SDS011;2938;52.254;12.988;2023-10-13T14:32:32;29.15;;;8.35;;
5823;SDS011;2938;52.254;12.988;2023-10-13T14:35:06;27.05;;;9.18;;
5823;SDS011;2938;52.254;12.988;2023-10-13T14:37:39;11.48;;;7.47;;
5823;SDS011;2938;52.254;12.988;2023-10-13T14:40:05;16.50;;;8.55;;
5823;SDS011;2938;52.254;12.988;2023-10-13T14:42:36;14.15;;;6.95;;
5823;SDS011;2938;52.254;12.988;2023-10-13T14:45:02;15.77;;;7.30;;
5823;SDS011;2938;52.254;12.988;2023-10-13T14:47:37;21.20;;;7.72;;
5823;SDS011;2938;52.254;12.988;2023-10-13T14:50:04;23.92;;;7.95;;
5823;SDS011;2938;52.254;12.988;2023-10-13T14:52:30;18.45;;;8.45;;
5823;SDS011;2938;52.254;12.988;2023-10-13T14:54:56;30.98;;;9.57;;
5823;SDS011;2938;52.254;12.988;2023-10-13T14:57:22;19.67;;;9.50;;
5823;SDS011;2938;52.254;12.988;2023-10-13T14:59:54;21.48;;;8.10;;
5823;SDS011;2938;52.254;12.988;2023-10-13T15:02:20;15.32;;;8.60;;
5823;SDS011;2938;52.254;12.988;2023-10-13T15:04:46;20.73;;;8.95;;
5823;SDS011;2938;52.254;12.988;2023-10-13T15:07:13;21.67;;;8.43;;
5823;SDS011;2938;52.254;12.988;2023-10-13T15:09:39;22.58;;;8.52;;
5823;SDS011;2938;52.254;12.988;2023-10-13T15:12:07;19.83;;;9.45;;
5823;SDS011;2938;52.254;12.988;2023-10-13T15:14:35;21.38;;;9.18;;
5823;SDS011;2938;52.254;12.988;2023-10-13T15:17:01;28.08;;;9.02;;
5823;SDS011;2938;52.254;12.988;2023-10-13T15:19:27;22.17;;;9.25;;
5823;SDS011;2938;52.254;12.988;2023-10-13T15:21:55;20.25;;;8.82;;
5823;SDS011;2938;52.254;12.988;2023-10-13T15:24:21;13.98;;;7.18;;